sensor_id;sensor_type;location;lat;lon;timestamp;temperature;humidity
71237;DHT22;58984;51.960;5.582;2022-12-15T00:00:00;6.40;44.20
71237;DHT22;58984;51.960;5.582;2022-12-15T00:02:44;6.40;44.20
71237;DHT22;58984;51.960;5.582;2022-12-15T00:05:28;6.40;44.30
71237;DHT22;58984;51.960;5.582;2022-12-15T00:08:12;6.30;44.20
71237;DHT22;58984;51.960;5.582;2022-12-15T00:10:56;6.30;44.20
71237;DHT22;58984;51.960;5.582;2022-12-15T00:13:40;6.40;44.30
71237;DHT22;58984;51.960;5.582;2022-12-15T00:16:24;6.30;44.20
71237;DHT22;58984;51.960;5.582;2022-12-15T00:19:09;6.30;44.20
71237;DHT22;58984;51.960;5.582;2022-12-15T00:21:53;6.30;44.30
71237;DHT22;58984;51.960;5.582;2022-12-15T00:24:37;6.30;44.20
71237;DHT22;58984;51.960;5.582;2022-12-15T00:27:21;6.30;44.30
71237;DHT22;58984;51.960;5.582;2022-12-15T00:30:06;6.30;44.30
71237;DHT22;58984;51.960;5.582;2022-12-15T00:32:50;6.30;44.30
71237;DHT22;58984;51.960;5.582;2022-12-15T00:35:34;6.30;44.30
71237;DHT22;58984;51.960;5.582;2022-12-15T00:38:18;6.30;44.30
71237;DHT22;58984;51.960;5.582;2022-12-15T00:41:02;6.30;44.40
71237;DHT22;58984;51.960;5.582;2022-12-15T00:43:29;6.30;45.00
71237;DHT22;58984;51.960;5.582;2022-12-15T00:45:56;6.20;44.30
71237;DHT22;58984;51.960;5.582;2022-12-15T00:48:40;6.20;44.30
71237;DHT22;58984;51.960;5.582;2022-12-15T00:51:06;6.20;44.40
71237;DHT22;58984;51.960;5.582;2022-12-15T00:53:32;6.30;44.40
71237;DHT22;58984;51.960;5.582;2022-12-15T00:56:16;6.20;44.30
71237;DHT22;58984;51.960;5.582;2022-12-15T00:59:01;6.20;44.30
71237;DHT22;58984;51.960;5.582;2022-12-15T01:01:45;6.20;44.30
71237;DHT22;58984;51.960;5.582;2022-12-15T01:04:29;6.20;44.30
71237;DHT22;58984;51.960;5.582;2022-12-15T01:07:13;6.20;44.40
71237;DHT22;58984;51.960;5.582;2022-12-15T01:09:57;6.20;44.40
71237;DHT22;58984;51.960;5.582;2022-12-15T01:12:42;6.20;44.40
71237;DHT22;58984;51.960;5.582;2022-12-15T01:15:26;6.20;44.40
71237;DHT22;58984;51.960;5.582;2022-12-15T01:18:10;6.20;44.40
71237;DHT22;58984;51.960;5.582;2022-12-15T01:21:05;6.20;44.40
71237;DHT22;58984;51.960;5.582;2022-12-15T01:23:33;6.10;44.40
71237;DHT22;58984;51.960;5.582;2022-12-15T01:25:59;6.10;44.40
71237;DHT22;58984;51.960;5.582;2022-12-15T01:28:25;6.20;44.50
71237;DHT22;58984;51.960;5.582;2022-12-15T01:30:50;6.10;44.40
71237;DHT22;58984;51.960;5.582;2022-12-15T01:33:17;6.10;44.40
71237;DHT22;58984;51.960;5.582;2022-12-15T01:35:43;6.10;44.40
71237;DHT22;58984;51.960;5.582;2022-12-15T01:38:09;6.10;44.40
71237;DHT22;58984;51.960;5.582;2022-12-15T01:40:36;6.20;44.50
71237;DHT22;58984;51.960;5.582;2022-12-15T01:43:16;6.10;44.40
71237;DHT22;58984;51.960;5.582;2022-12-15T01:48:28;6.10;44.50
71237;DHT22;58984;51.960;5.582;2022-12-15T01:51:03;6.10;44.50
71237;DHT22;58984;51.960;5.582;2022-12-15T01:53:38;6.00;44.50
71237;DHT22;58984;51.960;5.582;2022-12-15T01:56:07;6.10;44.50
71237;DHT22;58984;51.960;5.582;2022-12-15T01:58:34;6.10;44.60
71237;DHT22;58984;51.960;5.582;2022-12-15T02:01:00;6.10;44.60
71237;DHT22;58984;51.960;5.582;2022-12-15T02:03:27;6.10;44.60
71237;DHT22;58984;51.960;5.582;2022-12-15T02:05:54;6.10;44.60
71237;DHT22;58984;51.960;5.582;2022-12-15T02:08:20;6.10;44.60
71237;DHT22;58984;51.960;5.582;2022-12-15T02:24:48;6.00;44.50
71237;DHT22;58984;51.960;5.582;2022-12-15T02:30:19;6.00;44.50
71237;DHT22;58984;51.960;5.582;2022-12-15T02:38:36;6.00;44.50
71237;DHT22;58984;51.960;5.582;2022-12-15T02:41:04;5.90;44.50
71237;DHT22;58984;51.960;5.582;2022-12-15T02:43:35;6.00;44.60
71237;DHT22;58984;51.960;5.582;2022-12-15T02:46:26;5.90;44.50
71237;DHT22;58984;51.960;5.582;2022-12-15T02:49:35;5.90;44.50
71237;DHT22;58984;51.960;5.582;2022-12-15T02:57:53;5.90;44.60
71237;DHT22;58984;51.960;5.582;2022-12-15T03:00:21;5.90;44.70
71237;DHT22;58984;51.960;5.582;2022-12-15T03:02:52;5.90;44.70
71237;DHT22;58984;51.960;5.582;2022-12-15T03:05:20;5.90;44.70
71237;DHT22;58984;51.960;5.582;2022-12-15T03:07:49;5.90;44.70
71237;DHT22;58984;51.960;5.582;2022-12-15T03:10:14;5.90;44.60
71237;DHT22;58984;51.960;5.582;2022-12-15T03:12:40;5.90;44.70
71237;DHT22;58984;51.960;5.582;2022-12-15T03:15:06;5.90;44.70
71237;DHT22;58984;51.960;5.582;2022-12-15T03:17:32;5.90;44.60
71237;DHT22;58984;51.960;5.582;2022-12-15T03:19:57;5.90;44.70
71237;DHT22;58984;51.960;5.582;2022-12-15T03:22:23;5.90;44.60
71237;DHT22;58984;51.960;5.582;2022-12-15T03:24:49;5.90;44.70
71237;DHT22;58984;51.960;5.582;2022-12-15T03:27:14;5.90;44.70
71237;DHT22;58984;51.960;5.582;2022-12-15T03:29:40;5.80;44.60
71237;DHT22;58984;51.960;5.582;2022-12-15T03:32:05;5.90;44.70
71237;DHT22;58984;51.960;5.582;2022-12-15T03:34:31;5.80;44.60
71237;DHT22;58984;51.960;5.582;2022-12-15T03:36:57;5.80;44.60
71237;DHT22;58984;51.960;5.582;2022-12-15T03:39:22;5.80;44.60
71237;DHT22;58984;51.960;5.582;2022-12-15T03:41:48;5.80;44.60
71237;DHT22;58984;51.960;5.582;2022-12-15T03:44:13;5.80;44.60
71237;DHT22;58984;51.960;5.582;2022-12-15T03:46:39;5.80;44.60
71237;DHT22;58984;51.960;5.582;2022-12-15T03:49:04;5.80;44.70
71237;DHT22;58984;51.960;5.582;2022-12-15T03:51:30;5.80;44.70
71237;DHT22;58984;51.960;5.582;2022-12-15T03:53:56;5.80;44.60
71237;DHT22;58984;51.960;5.582;2022-12-15T03:56:23;5.80;44.60
71237;DHT22;58984;51.960;5.582;2022-12-15T03:58:49;5.80;44.60
71237;DHT22;58984;51.960;5.582;2022-12-15T04:01:27;5.80;45.30
71237;DHT22;58984;51.960;5.582;2022-12-15T04:03:54;5.70;44.60
71237;DHT22;58984;51.960;5.582;2022-12-15T04:06:20;5.80;44.70
71237;DHT22;58984;51.960;5.582;2022-12-15T04:08:45;5.80;44.70
71237;DHT22;58984;51.960;5.582;2022-12-15T04:11:11;5.70;44.60
71237;DHT22;58984;51.960;5.582;2022-12-15T04:13:36;5.70;44.70
71237;DHT22;58984;51.960;5.582;2022-12-15T04:16:02;5.70;44.70
71237;DHT22;58984;51.960;5.582;2022-12-15T04:18:28;5.70;44.70
71237;DHT22;58984;51.960;5.582;2022-12-15T04:20:54;5.70;44.70
71237;DHT22;58984;51.960;5.582;2022-12-15T04:23:20;5.70;44.70
71237;DHT22;58984;51.960;5.582;2022-12-15T04:25:45;5.70;44.70
71237;DHT22;58984;51.960;5.582;2022-12-15T04:28:29;5.70;44.70
71237;DHT22;58984;51.960;5.582;2022-12-15T04:31:26;5.70;44.70
71237;DHT22;58984;51.960;5.582;2022-12-15T04:34:14;5.70;44.70
71237;DHT22;58984;51.960;5.582;2022-12-15T04:36:59;5.70;44.80
71237;DHT22;58984;51.960;5.582;2022-12-15T04:39:46;5.70;44.80
71237;DHT22;58984;51.960;5.582;2022-12-15T04:42:32;5.70;44.80
71237;DHT22;58984;51.960;5.582;2022-12-15T04:45:19;5.70;44.80
71237;DHT22;58984;51.960;5.582;2022-12-15T04:48:04;5.70;44.90
71237;DHT22;58984;51.960;5.582;2022-12-15T04:50:48;5.60;45.50
71237;DHT22;58984;51.960;5.582;2022-12-15T04:53:33;5.60;44.80
71237;DHT22;58984;51.960;5.582;2022-12-15T04:56:17;5.60;44.80
71237;DHT22;58984;51.960;5.582;2022-12-15T04:59:01;5.60;44.80
71237;DHT22;58984;51.960;5.582;2022-12-15T05:01:46;5.60;44.90
71237;DHT22;58984;51.960;5.582;2022-12-15T05:04:30;5.60;44.90
71237;DHT22;58984;51.960;5.582;2022-12-15T05:07:14;5.60;44.90
71237;DHT22;58984;51.960;5.582;2022-12-15T05:09:58;5.60;45.00
71237;DHT22;58984;51.960;5.582;2022-12-15T05:12:43;5.60;45.00
71237;DHT22;58984;51.960;5.582;2022-12-15T05:15:27;5.60;44.90
71237;DHT22;58984;51.960;5.582;2022-12-15T05:18:11;5.60;45.00
71237;DHT22;58984;51.960;5.582;2022-12-15T05:20:57;5.50;44.90
71237;DHT22;58984;51.960;5.582;2022-12-15T05:23:41;5.60;45.00
71237;DHT22;58984;51.960;5.582;2022-12-15T05:26:25;5.50;44.90
71237;DHT22;58984;51.960;5.582;2022-12-15T05:29:09;5.50;45.00
71237;DHT22;58984;51.960;5.582;2022-12-15T05:31:53;5.50;44.90
71237;DHT22;58984;51.960;5.582;2022-12-15T05:34:25;5.50;44.90
71237;DHT22;58984;51.960;5.582;2022-12-15T05:36:52;5.50;44.90
71237;DHT22;58984;51.960;5.582;2022-12-15T05:39:18;5.50;44.90
71237;DHT22;58984;51.960;5.582;2022-12-15T05:41:44;5.50;44.90
71237;DHT22;58984;51.960;5.582;2022-12-15T05:44:10;5.50;44.90
71237;DHT22;58984;51.960;5.582;2022-12-15T05:46:36;5.50;44.90
71237;DHT22;58984;51.960;5.582;2022-12-15T05:49:07;5.50;44.90
71237;DHT22;58984;51.960;5.582;2022-12-15T05:51:36;5.50;44.90
71237;DHT22;58984;51.960;5.582;2022-12-15T05:54:02;5.50;45.00
71237;DHT22;58984;51.960;5.582;2022-12-15T05:56:27;5.50;44.90
71237;DHT22;58984;51.960;5.582;2022-12-15T05:58:57;5.50;44.90
71237;DHT22;58984;51.960;5.582;2022-12-15T06:01:24;5.50;44.90
71237;DHT22;58984;51.960;5.582;2022-12-15T06:03:50;5.50;44.90
71237;DHT22;58984;51.960;5.582;2022-12-15T06:06:16;5.50;44.90
71237;DHT22;58984;51.960;5.582;2022-12-15T06:08:42;5.50;45.00
71237;DHT22;58984;51.960;5.582;2022-12-15T06:11:10;5.50;44.90
71237;DHT22;58984;51.960;5.582;2022-12-15T06:13:36;5.50;44.90
71237;DHT22;58984;51.960;5.582;2022-12-15T06:18:34;5.50;45.00
71237;DHT22;58984;51.960;5.582;2022-12-15T06:21:05;5.50;44.90
71237;DHT22;58984;51.960;5.582;2022-12-15T06:23:32;5.50;44.90
71237;DHT22;58984;51.960;5.582;2022-12-15T06:25:58;5.50;44.90
71237;DHT22;58984;51.960;5.582;2022-12-15T06:28:28;5.40;44.80
71237;DHT22;58984;51.960;5.582;2022-12-15T06:31:02;5.50;44.90
71237;DHT22;58984;51.960;5.582;2022-12-15T06:33:29;5.40;44.80
71237;DHT22;58984;51.960;5.582;2022-12-15T06:36:28;5.40;44.80
71237;DHT22;58984;51.960;5.582;2022-12-15T06:38:48;5.50;45.00
71237;DHT22;58984;51.960;5.582;2022-12-15T06:41:17;5.50;45.00
71237;DHT22;58984;51.960;5.582;2022-12-15T06:43:47;5.50;45.00
71237;DHT22;58984;51.960;5.582;2022-12-15T06:46:13;5.40;44.80
71237;DHT22;58984;51.960;5.582;2022-12-15T06:48:39;5.40;44.90
71237;DHT22;58984;51.960;5.582;2022-12-15T06:51:06;5.40;44.90
71237;DHT22;58984;51.960;5.582;2022-12-15T06:53:36;5.40;44.90
71237;DHT22;58984;51.960;5.582;2022-12-15T06:56:04;5.40;45.00
71237;DHT22;58984;51.960;5.582;2022-12-15T06:58:31;5.40;45.00
71237;DHT22;58984;51.960;5.582;2022-12-15T07:00:57;5.40;45.00
71237;DHT22;58984;51.960;5.582;2022-12-15T07:03:23;5.40;45.00
71237;DHT22;58984;51.960;5.582;2022-12-15T07:06:00;5.40;45.10
71237;DHT22;58984;51.960;5.582;2022-12-15T07:08:26;5.30;45.00
71237;DHT22;58984;51.960;5.582;2022-12-15T07:10:52;5.40;45.00
71237;DHT22;58984;51.960;5.582;2022-12-15T07:13:17;5.40;45.00
71237;DHT22;58984;51.960;5.582;2022-12-15T07:15:43;5.40;45.00
71237;DHT22;58984;51.960;5.582;2022-12-15T07:18:09;5.40;45.60
71237;DHT22;58984;51.960;5.582;2022-12-15T07:20:35;5.40;44.90
71237;DHT22;58984;51.960;5.582;2022-12-15T07:23:00;5.40;45.00
71237;DHT22;58984;51.960;5.582;2022-12-15T07:25:32;5.30;44.90
71237;DHT22;58984;51.960;5.582;2022-12-15T07:27:58;5.30;44.80
71237;DHT22;58984;51.960;5.582;2022-12-15T07:30:23;5.40;44.90
71237;DHT22;58984;51.960;5.582;2022-12-15T07:32:49;5.30;44.80
71237;DHT22;58984;51.960;5.582;2022-12-15T07:35:14;5.30;44.80
71237;DHT22;58984;51.960;5.582;2022-12-15T07:37:40;5.30;44.80
71237;DHT22;58984;51.960;5.582;2022-12-15T07:40:06;5.30;44.80
71237;DHT22;58984;51.960;5.582;2022-12-15T07:42:32;5.30;44.80
71237;DHT22;58984;51.960;5.582;2022-12-15T07:44:57;5.30;44.80
71237;DHT22;58984;51.960;5.582;2022-12-15T07:47:23;5.30;44.80
71237;DHT22;58984;51.960;5.582;2022-12-15T07:49:49;5.30;44.80
71237;DHT22;58984;51.960;5.582;2022-12-15T07:52:15;5.30;44.80
71237;DHT22;58984;51.960;5.582;2022-12-15T07:54:41;5.30;44.80
71237;DHT22;58984;51.960;5.582;2022-12-15T07:57:06;5.30;44.80
71237;DHT22;58984;51.960;5.582;2022-12-15T07:59:35;5.30;44.80
71237;DHT22;58984;51.960;5.582;2022-12-15T08:02:01;5.20;44.70
71237;DHT22;58984;51.960;5.582;2022-12-15T08:04:29;5.20;44.70
71237;DHT22;58984;51.960;5.582;2022-12-15T08:06:55;5.30;44.80
71237;DHT22;58984;51.960;5.582;2022-12-15T08:09:21;5.30;44.80
71237;DHT22;58984;51.960;5.582;2022-12-15T08:11:47;5.20;44.80
71237;DHT22;58984;51.960;5.582;2022-12-15T08:14:13;5.20;44.80
71237;DHT22;58984;51.960;5.582;2022-12-15T08:16:39;5.30;44.90
71237;DHT22;58984;51.960;5.582;2022-12-15T08:19:06;5.20;44.80
71237;DHT22;58984;51.960;5.582;2022-12-15T08:21:32;5.20;44.80
71237;DHT22;58984;51.960;5.582;2022-12-15T08:23:58;5.20;44.90
71237;DHT22;58984;51.960;5.582;2022-12-15T08:26:25;5.20;44.90
71237;DHT22;58984;51.960;5.582;2022-12-15T08:28:51;5.20;44.90
71237;DHT22;58984;51.960;5.582;2022-12-15T08:31:19;5.20;45.00
71237;DHT22;58984;51.960;5.582;2022-12-15T08:33:45;5.20;45.00
71237;DHT22;58984;51.960;5.582;2022-12-15T08:36:12;5.20;45.00
71237;DHT22;58984;51.960;5.582;2022-12-15T08:38:39;5.20;45.10
71237;DHT22;58984;51.960;5.582;2022-12-15T08:41:13;5.20;45.10
71237;DHT22;58984;51.960;5.582;2022-12-15T08:43:40;5.20;45.10
71237;DHT22;58984;51.960;5.582;2022-12-15T08:46:06;5.20;45.10
71237;DHT22;58984;51.960;5.582;2022-12-15T08:48:33;5.20;45.20
71237;DHT22;58984;51.960;5.582;2022-12-15T08:51:00;5.20;45.20
71237;DHT22;58984;51.960;5.582;2022-12-15T08:53:26;5.20;45.20
71237;DHT22;58984;51.960;5.582;2022-12-15T08:55:52;5.20;45.20
71237;DHT22;58984;51.960;5.582;2022-12-15T08:58:18;5.20;45.20
71237;DHT22;58984;51.960;5.582;2022-12-15T09:00:43;5.20;45.20
71237;DHT22;58984;51.960;5.582;2022-12-15T09:03:09;5.20;45.20
71237;DHT22;58984;51.960;5.582;2022-12-15T09:05:36;5.20;45.20
71237;DHT22;58984;51.960;5.582;2022-12-15T09:08:02;5.20;45.20
71237;DHT22;58984;51.960;5.582;2022-12-15T09:10:28;5.20;45.20
71237;DHT22;58984;51.960;5.582;2022-12-15T09:12:53;5.20;45.90
71237;DHT22;58984;51.960;5.582;2022-12-15T09:15:19;5.20;45.20
71237;DHT22;58984;51.960;5.582;2022-12-15T09:17:45;5.20;45.30
71237;DHT22;58984;51.960;5.582;2022-12-15T09:20:11;5.20;45.40
71237;DHT22;58984;51.960;5.582;2022-12-15T09:22:37;5.30;45.50
71237;DHT22;58984;51.960;5.582;2022-12-15T09:25:03;5.30;45.60
71237;DHT22;58984;51.960;5.582;2022-12-15T09:27:29;5.30;45.60
71237;DHT22;58984;51.960;5.582;2022-12-15T09:29:55;5.30;45.60
71237;DHT22;58984;51.960;5.582;2022-12-15T09:32:21;5.30;45.60
71237;DHT22;58984;51.960;5.582;2022-12-15T09:34:49;5.30;45.60
71237;DHT22;58984;51.960;5.582;2022-12-15T09:37:14;5.30;45.60
71237;DHT22;58984;51.960;5.582;2022-12-15T09:39:40;5.40;45.70
71237;DHT22;58984;51.960;5.582;2022-12-15T09:42:24;5.40;45.70
71237;DHT22;58984;51.960;5.582;2022-12-15T09:45:00;5.40;45.70
71237;DHT22;58984;51.960;5.582;2022-12-15T09:50:15;5.40;45.90
71237;DHT22;58984;51.960;5.582;2022-12-15T09:52:51;5.40;45.90
71237;DHT22;58984;51.960;5.582;2022-12-15T09:55:23;5.50;46.00
71237;DHT22;58984;51.960;5.582;2022-12-15T10:05:50;5.60;46.20
71237;DHT22;58984;51.960;5.582;2022-12-15T10:08:16;5.70;46.20
71237;DHT22;58984;51.960;5.582;2022-12-15T10:13:19;5.80;46.30
71237;DHT22;58984;51.960;5.582;2022-12-15T10:15:55;5.80;46.80
71237;DHT22;58984;51.960;5.582;2022-12-15T10:18:25;5.90;46.30
71237;DHT22;58984;51.960;5.582;2022-12-15T10:20:54;5.90;46.30
71237;DHT22;58984;51.960;5.582;2022-12-15T10:23:20;6.10;46.40
71237;DHT22;58984;51.960;5.582;2022-12-15T10:25:48;6.10;46.20
71237;DHT22;58984;51.960;5.582;2022-12-15T10:28:36;6.20;46.40
71237;DHT22;58984;51.960;5.582;2022-12-15T10:31:18;6.20;46.40
71237;DHT22;58984;51.960;5.582;2022-12-15T10:33:55;6.30;46.40
71237;DHT22;58984;51.960;5.582;2022-12-15T10:36:22;6.40;46.60
71237;DHT22;58984;51.960;5.582;2022-12-15T10:38:47;6.60;46.70
71237;DHT22;58984;51.960;5.582;2022-12-15T10:41:15;6.80;47.40
71237;DHT22;58984;51.960;5.582;2022-12-15T10:43:43;6.80;46.90
71237;DHT22;58984;51.960;5.582;2022-12-15T10:46:21;6.90;46.90
71237;DHT22;58984;51.960;5.582;2022-12-15T10:51:18;7.10;46.90
71237;DHT22;58984;51.960;5.582;2022-12-15T10:54:34;7.10;46.80
71237;DHT22;58984;51.960;5.582;2022-12-15T10:56:44;7.30;47.00
71237;DHT22;58984;51.960;5.582;2022-12-15T11:01:48;7.40;47.00
71237;DHT22;58984;51.960;5.582;2022-12-15T11:04:28;7.50;47.00
71237;DHT22;58984;51.960;5.582;2022-12-15T11:06:59;7.50;47.10
71237;DHT22;58984;51.960;5.582;2022-12-15T11:11:58;7.70;47.20
71237;DHT22;58984;51.960;5.582;2022-12-15T11:14:48;7.80;47.20
71237;DHT22;58984;51.960;5.582;2022-12-15T11:17:20;7.90;47.50
71237;DHT22;58984;51.960;5.582;2022-12-15T11:19:49;8.00;47.40
71237;DHT22;58984;51.960;5.582;2022-12-15T11:22:39;8.10;47.50
71237;DHT22;58984;51.960;5.582;2022-12-15T11:27:59;8.30;47.70
71237;DHT22;58984;51.960;5.582;2022-12-15T11:30:32;8.40;48.30
71237;DHT22;58984;51.960;5.582;2022-12-15T11:33:00;8.40;47.60
71237;DHT22;58984;51.960;5.582;2022-12-15T11:35:54;8.50;47.60
71237;DHT22;58984;51.960;5.582;2022-12-15T11:38:31;8.50;47.60
71237;DHT22;58984;51.960;5.582;2022-12-15T11:46:43;8.70;47.70
71237;DHT22;58984;51.960;5.582;2022-12-15T11:49:33;8.80;47.80
71237;DHT22;58984;51.960;5.582;2022-12-15T11:55:01;8.90;47.80
71237;DHT22;58984;51.960;5.582;2022-12-15T12:00:41;9.00;47.80
71237;DHT22;58984;51.960;5.582;2022-12-15T12:06:02;9.00;47.70
71237;DHT22;58984;51.960;5.582;2022-12-15T12:11:50;9.00;47.70
71237;DHT22;58984;51.960;5.582;2022-12-15T12:17:18;9.00;47.70
71237;DHT22;58984;51.960;5.582;2022-12-15T12:19:58;9.00;47.70
71237;DHT22;58984;51.960;5.582;2022-12-15T12:22:29;9.10;47.70
71237;DHT22;58984;51.960;5.582;2022-12-15T12:25:14;9.00;47.70
71237;DHT22;58984;51.960;5.582;2022-12-15T12:27:51;9.00;47.70
71237;DHT22;58984;51.960;5.582;2022-12-15T12:30:20;9.00;47.60
71237;DHT22;58984;51.960;5.582;2022-12-15T12:35:37;9.00;47.70
71237;DHT22;58984;51.960;5.582;2022-12-15T12:38:07;9.00;47.70
71237;DHT22;58984;51.960;5.582;2022-12-15T12:43:07;9.00;47.80
71237;DHT22;58984;51.960;5.582;2022-12-15T12:45:52;9.00;47.90
71237;DHT22;58984;51.960;5.582;2022-12-15T12:53:57;8.90;47.80
71237;DHT22;58984;51.960;5.582;2022-12-15T12:56:49;8.90;48.50
71237;DHT22;58984;51.960;5.582;2022-12-15T13:04:41;8.90;48.00
71237;DHT22;58984;51.960;5.582;2022-12-15T13:07:37;8.90;48.00
71237;DHT22;58984;51.960;5.582;2022-12-15T13:15:10;8.90;48.10
71237;DHT22;58984;51.960;5.582;2022-12-15T13:17:40;8.90;48.20
71237;DHT22;58984;51.960;5.582;2022-12-15T13:20:24;8.90;48.10
71237;DHT22;58984;51.960;5.582;2022-12-15T13:22:50;8.80;48.00
71237;DHT22;58984;51.960;5.582;2022-12-15T13:27:52;8.90;48.20
71237;DHT22;58984;51.960;5.582;2022-12-15T13:30:22;8.80;48.10
71237;DHT22;58984;51.960;5.582;2022-12-15T13:32:55;8.90;48.20
71237;DHT22;58984;51.960;5.582;2022-12-15T13:35:39;8.80;48.20
71237;DHT22;58984;51.960;5.582;2022-12-15T13:38:16;8.80;48.80
71237;DHT22;58984;51.960;5.582;2022-12-15T13:40:50;8.80;48.20
71237;DHT22;58984;51.960;5.582;2022-12-15T13:45:54;8.80;48.30
71237;DHT22;58984;51.960;5.582;2022-12-15T13:53:54;8.80;48.30
71237;DHT22;58984;51.960;5.582;2022-12-15T13:59:23;8.70;48.30
71237;DHT22;58984;51.960;5.582;2022-12-15T14:01:51;8.70;48.20
71237;DHT22;58984;51.960;5.582;2022-12-15T14:04:18;8.70;48.30
71237;DHT22;58984;51.960;5.582;2022-12-15T14:09:20;8.70;48.30
71237;DHT22;58984;51.960;5.582;2022-12-15T14:11:46;8.80;48.40
71237;DHT22;58984;51.960;5.582;2022-12-15T14:14:21;8.80;48.40
71237;DHT22;58984;51.960;5.582;2022-12-15T14:16:57;8.80;48.30
71237;DHT22;58984;51.960;5.582;2022-12-15T14:19:23;8.80;48.30
71237;DHT22;58984;51.960;5.582;2022-12-15T14:21:54;8.80;48.30
71237;DHT22;58984;51.960;5.582;2022-12-15T14:26:50;8.90;48.40
71237;DHT22;58984;51.960;5.582;2022-12-15T14:29:16;8.90;48.30
71237;DHT22;58984;51.960;5.582;2022-12-15T14:31:47;8.80;48.90
71237;DHT22;58984;51.960;5.582;2022-12-15T14:34:22;8.90;48.30
71237;DHT22;58984;51.960;5.582;2022-12-15T14:36:48;8.90;48.30
71237;DHT22;58984;51.960;5.582;2022-12-15T14:41:59;8.90;48.30
71237;DHT22;58984;51.960;5.582;2022-12-15T14:44:37;8.90;48.30
71237;DHT22;58984;51.960;5.582;2022-12-15T14:47:06;8.90;48.30
71237;DHT22;58984;51.960;5.582;2022-12-15T14:49:38;8.90;48.30
71237;DHT22;58984;51.960;5.582;2022-12-15T14:52:05;8.80;48.30
71237;DHT22;58984;51.960;5.582;2022-12-15T14:54:34;8.90;48.40
71237;DHT22;58984;51.960;5.582;2022-12-15T14:57:35;8.80;48.40
71237;DHT22;58984;51.960;5.582;2022-12-15T15:00:27;8.80;48.40
71237;DHT22;58984;51.960;5.582;2022-12-15T15:06:02;8.80;48.40
71237;DHT22;58984;51.960;5.582;2022-12-15T15:11:24;8.80;48.50
71237;DHT22;58984;51.960;5.582;2022-12-15T15:13:55;8.70;48.40
71237;DHT22;58984;51.960;5.582;2022-12-15T15:16:22;8.70;48.40
71237;DHT22;58984;51.960;5.582;2022-12-15T15:18:50;8.70;48.50
71237;DHT22;58984;51.960;5.582;2022-12-15T15:21:25;8.60;48.40
71237;DHT22;58984;51.960;5.582;2022-12-15T15:26:35;8.60;48.40
71237;DHT22;58984;51.960;5.582;2022-12-15T15:29:01;8.60;48.40
71237;DHT22;58984;51.960;5.582;2022-12-15T15:31:33;8.60;48.40
71237;DHT22;58984;51.960;5.582;2022-12-15T15:33:59;8.60;48.40
71237;DHT22;58984;51.960;5.582;2022-12-15T15:36:36;8.50;48.40
71237;DHT22;58984;51.960;5.582;2022-12-15T15:39:08;8.50;48.40
71237;DHT22;58984;51.960;5.582;2022-12-15T15:41:34;8.50;48.40
71237;DHT22;58984;51.960;5.582;2022-12-15T15:44:12;8.50;48.40
71237;DHT22;58984;51.960;5.582;2022-12-15T15:46:45;8.50;48.40
71237;DHT22;58984;51.960;5.582;2022-12-15T15:49:16;8.40;48.20
71237;DHT22;58984;51.960;5.582;2022-12-15T15:51:42;8.40;48.30
71237;DHT22;58984;51.960;5.582;2022-12-15T15:54:13;8.40;48.20
71237;DHT22;58984;51.960;5.582;2022-12-15T15:56:39;8.30;48.20
71237;DHT22;58984;51.960;5.582;2022-12-15T15:59:14;8.40;48.30
71237;DHT22;58984;51.960;5.582;2022-12-15T16:01:41;8.30;48.20
71237;DHT22;58984;51.960;5.582;2022-12-15T16:04:07;8.30;48.20
71237;DHT22;58984;51.960;5.582;2022-12-15T16:06:32;8.30;48.20
71237;DHT22;58984;51.960;5.582;2022-12-15T16:08:58;8.30;48.20
71237;DHT22;58984;51.960;5.582;2022-12-15T16:11:27;8.30;48.20
71237;DHT22;58984;51.960;5.582;2022-12-15T16:13:53;8.20;48.10
71237;DHT22;58984;51.960;5.582;2022-12-15T16:16:21;8.20;48.10
71237;DHT22;58984;51.960;5.582;2022-12-15T16:18:48;8.20;48.20
71237;DHT22;58984;51.960;5.582;2022-12-15T16:21:14;8.20;48.20
71237;DHT22;58984;51.960;5.582;2022-12-15T16:23:42;8.20;48.20
71237;DHT22;58984;51.960;5.582;2022-12-15T16:26:16;8.10;48.10
71237;DHT22;58984;51.960;5.582;2022-12-15T16:28:44;8.10;48.20
71237;DHT22;58984;51.960;5.582;2022-12-15T16:31:14;8.10;48.70
71237;DHT22;58984;51.960;5.582;2022-12-15T16:33:40;8.10;48.10
71237;DHT22;58984;51.960;5.582;2022-12-15T16:36:12;8.10;48.10
71237;DHT22;58984;51.960;5.582;2022-12-15T16:38:39;8.00;48.00
71237;DHT22;58984;51.960;5.582;2022-12-15T16:41:06;8.10;48.20
71237;DHT22;58984;51.960;5.582;2022-12-15T16:43:34;8.00;48.10
71237;DHT22;58984;51.960;5.582;2022-12-15T16:46:00;8.00;48.10
71237;DHT22;58984;51.960;5.582;2022-12-15T16:48:26;8.00;48.10
71237;DHT22;58984;51.960;5.582;2022-12-15T16:50:53;8.00;48.20
71237;DHT22;58984;51.960;5.582;2022-12-15T16:53:22;8.00;48.20
71237;DHT22;58984;51.960;5.582;2022-12-15T16:55:52;8.00;48.20
71237;DHT22;58984;51.960;5.582;2022-12-15T16:58:19;7.90;48.10
71237;DHT22;58984;51.960;5.582;2022-12-15T17:00:45;7.90;48.20
71237;DHT22;58984;51.960;5.582;2022-12-15T17:03:15;7.90;48.30
71237;DHT22;58984;51.960;5.582;2022-12-15T17:05:43;7.90;48.30
71237;DHT22;58984;51.960;5.582;2022-12-15T17:08:19;7.90;48.30
71237;DHT22;58984;51.960;5.582;2022-12-15T17:10:46;7.90;48.30
71237;DHT22;58984;51.960;5.582;2022-12-15T17:13:39;7.90;48.20
71237;DHT22;58984;51.960;5.582;2022-12-15T17:16:05;7.80;48.20
71237;DHT22;58984;51.960;5.582;2022-12-15T17:18:31;7.80;48.10
71237;DHT22;58984;51.960;5.582;2022-12-15T17:21:46;7.90;48.20
71237;DHT22;58984;51.960;5.582;2022-12-15T17:23:53;7.80;48.10
71237;DHT22;58984;51.960;5.582;2022-12-15T17:26:27;7.80;48.10
71237;DHT22;58984;51.960;5.582;2022-12-15T17:28:54;7.80;48.10
71237;DHT22;58984;51.960;5.582;2022-12-15T17:31:22;7.80;48.10
71237;DHT22;58984;51.960;5.582;2022-12-15T17:33:48;7.70;48.00
71237;DHT22;58984;51.960;5.582;2022-12-15T17:36:22;7.80;48.10
71237;DHT22;58984;51.960;5.582;2022-12-15T17:38:56;7.70;48.00
71237;DHT22;58984;51.960;5.582;2022-12-15T17:41:22;7.70;48.00
71237;DHT22;58984;51.960;5.582;2022-12-15T17:43:48;7.70;47.90
71237;DHT22;58984;51.960;5.582;2022-12-15T17:46:15;7.70;48.00
71237;DHT22;58984;51.960;5.582;2022-12-15T17:48:40;7.70;48.00
71237;DHT22;58984;51.960;5.582;2022-12-15T17:51:24;7.70;48.00
71237;DHT22;58984;51.960;5.582;2022-12-15T17:53:49;7.70;48.00
71237;DHT22;58984;51.960;5.582;2022-12-15T17:56:16;7.60;47.90
71237;DHT22;58984;51.960;5.582;2022-12-15T17:58:42;7.70;48.00
71237;DHT22;58984;51.960;5.582;2022-12-15T18:01:11;7.60;47.90
71237;DHT22;58984;51.960;5.582;2022-12-15T18:03:37;7.60;47.90
71237;DHT22;58984;51.960;5.582;2022-12-15T18:06:03;7.60;47.90
71237;DHT22;58984;51.960;5.582;2022-12-15T18:08:32;7.60;47.90
71237;DHT22;58984;51.960;5.582;2022-12-15T18:10:57;7.60;47.90
71237;DHT22;58984;51.960;5.582;2022-12-15T18:13:29;7.60;47.90
71237;DHT22;58984;51.960;5.582;2022-12-15T18:15:56;7.60;47.90
71237;DHT22;58984;51.960;5.582;2022-12-15T18:18:22;7.60;47.90
71237;DHT22;58984;51.960;5.582;2022-12-15T18:20:50;7.50;47.80